Time;durP1;ratioP1;P1;durP2;ratioP2;P2;SDS_P1;SDS_P2;PMS_P1;PMS_P2;Temp;Humidity;BMP_temperature;BMP_pressure;BME280_temperature;BME280_humidity;BME280_pressure;Samples;Min_cycle;Max_cycle;Signal;HPM_P1;HPM_P2
2021/03/30 00:03:37;;;;;;;7.07;2.57;;;9.00;99.90;;;;;;20832468;28;20025;-78
2021/03/30 00:13:38;;;;;;;6.20;2.17;;;9.00;99.90;;;;;;20831176;28;20041;-78
2021/03/30 00:23:39;;;;;;;3.97;2.20;;;8.90;99.90;;;;;;20848786;28;20391;-76
2021/03/30 00:33:40;;;;;;;4.23;1.90;;;8.80;99.90;;;;;;20845704;28;20025;-78
2021/03/30 00:43:40;;;;;;;4.37;2.07;;;8.60;99.90;;;;;;20842613;28;20059;-78
2021/03/30 00:53:41;;;;;;;3.90;1.73;;;7.90;99.90;;;;;;20836511;28;20569;-77
2021/03/30 01:04:05;;;;;;;4.95;2.20;;;6.50;99.90;;;;;;20816954;28;20517;-78
2021/03/30 01:14:09;;;;;;;3.90;2.27;;;6.50;99.90;;;;;;20843833;28;20033;-76
2021/03/30 01:24:41;;;;;;;3.58;1.85;;;6.80;99.90;;;;;;20822196;28;20097;-78
2021/03/30 01:34:46;;;;;;;7.53;2.73;;;7.20;99.90;;;;;;20822051;28;20049;-78
2021/03/30 01:44:48;;;;;;;7.97;2.72;;;6.70;99.90;;;;;;20844692;28;20068;-76
2021/03/30 01:54:50;;;;;;;7.72;2.45;;;6.70;99.90;;;;;;20828549;28;20034;-77
2021/03/30 02:04:52;;;;;;;6.45;2.20;;;6.90;99.90;;;;;;20831796;28;20068;-77
2021/03/30 02:14:56;;;;;;;3.40;2.17;;;6.60;99.90;;;;;;20846523;28;20029;-78
2021/03/30 02:24:58;;;;;;;5.50;2.60;;;6.80;99.90;;;;;;20812746;28;20061;-77
2021/03/30 02:35:04;;;;;;;3.85;2.25;;;6.60;99.90;;;;;;20822234;28;20428;-77
2021/03/30 02:45:06;;;;;;;7.93;3.25;;;6.10;99.90;;;;;;20821530;28;20029;-77
2021/03/30 02:55:06;;;;;;;;;;;5.60;99.90;;;;;;20839696;28;20129;-77
2021/03/30 03:05:08;;;;;;;6.32;3.05;;;5.80;99.90;;;;;;20847809;28;19913;-78
2021/03/30 03:15:13;;;;;;;5.13;2.75;;;6.00;99.90;;;;;;20837794;28;20029;-77
2021/03/30 03:25:14;;;;;;;4.68;2.40;;;5.90;99.90;;;;;;20837459;28;20025;-77
2021/03/30 03:35:15;;;;;;;8.65;3.97;;;5.80;99.90;;;;;;20837953;28;20427;-77
2021/03/30 03:45:16;;;;;;;8.67;3.80;;;5.80;99.90;;;;;;20836487;28;20035;-78
2021/03/30 03:55:18;;;;;;;10.90;3.43;;;5.50;99.90;;;;;;20836192;28;20094;-77
2021/03/30 04:05:22;;;;;;;5.57;2.97;;;5.20;99.90;;;;;;20819012;28;20036;-77
2021/03/30 04:15:25;;;;;;;16.35;3.20;;;4.80;99.90;;;;;;20834566;28;20033;-77
2021/03/30 04:25:27;;;;;;;5.25;2.70;;;4.80;99.90;;;;;;20836606;28;20495;-77
2021/03/30 04:35:27;;;;;;;7.28;3.72;;;5.00;99.90;;;;;;20838035;28;20032;-77
2021/03/30 04:45:28;;;;;;;9.53;3.90;;;4.80;99.90;;;;;;20832874;28;20060;-78
2021/03/30 04:55:29;;;;;;;7.07;3.57;;;4.40;99.90;;;;;;20795887;28;20471;-77
2021/03/30 05:05:30;;;;;;;6.20;4.10;;;3.90;99.90;;;;;;20833244;28;20026;-76
2021/03/30 05:15:31;;;;;;;8.97;4.40;;;3.90;99.90;;;;;;20809930;28;20044;-77
2021/03/30 05:25:32;;;;;;;9.13;4.57;;;4.10;99.90;;;;;;20995869;23;20047;-77
2021/03/30 05:35:33;;;;;;;8.73;5.20;;;4.90;99.90;;;;;;20990711;28;20586;-77
2021/03/30 05:45:34;;;;;;;44.07;16.23;;;4.50;99.90;;;;;;20990619;28;20482;-77
2021/03/30 05:55:40;;;;;;;17.77;8.37;;;4.50;99.90;;;;;;20989315;28;20033;-77
2021/03/30 06:05:42;;;;;;;10.95;6.28;;;4.80;99.90;;;;;;20988179;28;20491;-77
2021/03/30 06:15:42;;;;;;;11.15;5.70;;;5.20;99.90;;;;;;20992659;28;20029;-79
2021/03/30 06:25:45;;;;;;;12.47;5.57;;;5.50;99.90;;;;;;21013508;28;20039;-78
2021/03/30 06:35:47;;;;;;;8.77;4.72;;;6.00;99.90;;;;;;21015591;28;20086;-78
2021/03/30 06:45:48;;;;;;;8.30;3.90;;;6.70;99.90;;;;;;21018435;28;20092;-79
2021/03/30 06:55:51;;;;;;;10.40;3.93;;;7.70;99.90;;;;;;21014682;28;20032;-79
2021/03/30 07:05:53;;;;;;;11.90;4.78;;;8.80;99.90;;;;;;21033886;28;20035;-78
2021/03/30 07:16:04;;;;;;;10.75;4.47;;;9.30;99.90;;;;;;21010981;28;20086;-78
2021/03/30 07:26:11;;;;;;;12.23;4.80;;;9.60;99.90;;;;;;21011841;28;20029;-78
2021/03/30 07:36:16;;;;;;;7.45;4.40;;;9.90;99.90;;;;;;21020112;28;20095;-77
2021/03/30 07:46:18;;;;;;;12.23;4.93;;;10.90;99.90;;;;;;21031034;28;20052;-79
2021/03/30 07:56:25;;;;;;;9.65;4.05;;;11.50;99.90;;;;;;21035086;28;20084;-78
2021/03/30 08:06:36;;;;;;;6.22;4.15;;;12.30;99.90;;;;;;21030663;28;20028;-79
2021/03/30 08:16:39;;;;;;;11.35;4.03;;;12.50;99.90;;;;;;21032131;28;20043;-78
2021/03/30 08:26:41;;;;;;;9.45;4.78;;;12.80;99.90;;;;;;21017833;28;20552;-78
2021/03/30 08:36:44;;;;;;;11.33;4.40;;;12.70;99.90;;;;;;20963024;28;20031;-78
2021/03/30 08:46:54;;;;;;;12.95;4.35;;;13.10;99.90;;;;;;21012162;28;20036;-79
2021/03/30 08:57:07;;;;;;;7.07;4.00;;;13.60;99.90;;;;;;21005277;28;20416;-78
2021/03/30 09:07:09;;;;;;;6.50;3.75;;;14.50;99.90;;;;;;21010090;28;20037;-79
2021/03/30 09:17:13;;;;;;;8.48;4.90;;;16.40;99.90;;;;;;21012997;28;20093;-80
2021/03/30 09:27:24;;;;;;;13.38;5.20;;;16.90;99.90;;;;;;20940594;28;20029;-80
2021/03/30 09:37:32;;;;;;;11.18;5.35;;;17.80;99.90;;;;;;20965434;28;20047;-79
2021/03/30 09:47:34;;;;;;;10.43;5.60;;;18.40;99.90;;;;;;21009294;28;20037;-79
2021/03/30 09:57:35;;;;;;;10.90;5.87;;;18.60;99.60;;;;;;20991114;28;20040;-79
2021/03/30 10:07:38;;;;;;;16.95;7.05;;;18.80;95.20;;;;;;21009420;28;20301;-80
2021/03/30 10:17:40;;;;;;;15.38;6.43;;;18.90;94.20;;;;;;21008576;28;20120;-79
2021/03/30 10:27:51;;;;;;;;;;;19.40;94.90;;;;;;20936369;28;20152;-79
2021/03/30 10:37:53;;;;;;;11.48;5.05;;;20.50;94.20;;;;;;20958430;28;19920;-79
2021/03/30 10:48:00;;;;;;;8.98;4.10;;;21.10;94.20;;;;;;21008732;28;20144;-79
2021/03/30 10:58:07;;;;;;;12.02;5.68;;;21.10;90.10;;;;;;20940709;28;20037;-79
2021/03/30 11:08:08;;;;;;;12.50;3.90;;;21.90;85.40;;;;;;20972391;28;20053;-79
2021/03/30 11:18:09;;;;;;;8.27;3.27;;;22.80;84.10;;;;;;21033377;23;20051;-77
2021/03/30 11:28:11;;;;;;;7.73;4.10;;;22.90;76.30;;;;;;20909272;28;20017;-76
2021/03/30 11:38:12;;;;;;;9.57;4.55;;;23.50;72.90;;;;;;20814771;28;20041;-78
2021/03/30 11:48:13;;;;;;;8.75;3.97;;;23.50;71.30;;;;;;20817492;28;20144;-78
2021/03/30 11:58:14;;;;;;;7.97;3.97;;;24.50;68.40;;;;;;20841174;28;20048;-78
2021/03/30 12:08:14;;;;;;;9.97;4.30;;;23.70;71.50;;;;;;20832791;28;20493;-79
2021/03/30 12:18:15;;;;;;;10.73;4.60;;;24.50;68.10;;;;;;20865758;28;20025;-78
2021/03/30 12:28:16;;;;;;;6.80;3.50;;;24.10;69.40;;;;;;20881596;28;20083;-78
2021/03/30 12:38:18;;;;;;;5.93;2.80;;;23.40;66.80;;;;;;20836728;28;20041;-79
2021/03/30 12:48:18;;;;;;;7.68;3.15;;;24.40;65.90;;;;;;20826262;28;20033;-78
2021/03/30 12:58:19;;;;;;;9.50;2.83;;;24.90;62.80;;;;;;20824020;28;20072;-80
2021/03/30 13:08:20;;;;;;;5.30;2.70;;;24.80;64.80;;;;;;20820945;28;20466;-80
2021/03/30 13:18:22;;;;;;;8.82;2.70;;;25.20;62.30;;;;;;20818253;28;20081;-80
2021/03/30 13:28:23;;;;;;;;;;;25.20;66.10;;;;;;20800373;28;20038;-79
2021/03/30 13:38:24;;;;;;;10.10;3.13;;;25.20;63.20;;;;;;20863388;28;19920;-80
2021/03/30 13:48:24;;;;;;;5.77;2.40;;;25.30;63.40;;;;;;20922690;28;20045;-81
2021/03/30 13:58:25;;;;;;;8.23;3.00;;;24.70;62.50;;;;;;20902773;28;20098;-81
2021/03/30 14:08:26;;;;;;;16.37;2.60;;;24.80;61.00;;;;;;20913553;28;20037;-80
2021/03/30 14:28:34;;;;;;;8.10;2.50;;;25.60;59.70;;;;;;20857919;28;20038;-79
2021/03/30 14:38:34;;;;;;;6.37;2.07;;;26.50;56.80;;;;;;20887479;28;20045;-79
2021/03/30 15:08:56;;;;;;;4.10;1.73;;;26.30;55.10;;;;;;20832383;28;20123;-79
2021/03/30 15:18:56;;;;;;;4.70;2.20;;;25.90;55.40;;;;;;20830505;28;20052;-80
2021/03/30 15:28:57;;;;;;;;;;;26.70;53.30;;;;;;20812497;28;20034;-80
2021/03/30 15:38:58;;;;;;;9.23;2.47;;;25.70;55.90;;;;;;20881274;28;19924;-81
2021/03/30 15:49:00;;;;;;;4.88;2.33;;;25.80;55.10;;;;;;20829300;28;20040;-79
2021/03/30 15:59:01;;;;;;;4.22;1.92;;;25.60;55.20;;;;;;20849384;28;20044;-80
2021/03/30 16:09:02;;;;;;;5.60;2.30;;;24.80;55.50;;;;;;20848340;28;20451;-78
2021/03/30 16:19:03;;;;;;;4.93;2.00;;;23.80;57.10;;;;;;20856686;28;20124;-79
2021/03/30 16:29:04;;;;;;;6.67;1.67;;;23.40;58.80;;;;;;20842262;28;20105;-81
2021/03/30 16:39:05;;;;;;;5.90;1.60;;;23.00;56.20;;;;;;20843763;28;20594;-81
2021/03/30 16:49:06;;;;;;;2.73;1.30;;;22.60;57.00;;;;;;20821292;28;20030;-80
2021/03/30 16:59:08;;;;;;;5.17;1.53;;;22.30;57.00;;;;;;20821470;28;20033;-78
2021/03/30 17:09:09;;;;;;;3.38;1.50;;;21.90;57.30;;;;;;20799062;28;20072;-79
2021/03/30 17:19:10;;;;;;;4.80;1.80;;;21.70;57.50;;;;;;20877747;23;20101;-78
2021/03/30 17:29:11;;;;;;;4.47;1.27;;;21.00;62.60;;;;;;20991341;28;20054;-78
2021/03/30 17:39:14;;;;;;;5.03;1.63;;;20.10;71.00;;;;;;21001782;28;20032;-80
2021/03/30 17:49:15;;;;;;;4.82;1.67;;;19.00;73.10;;;;;;20950855;28;20060;-79
2021/03/30 17:59:15;;;;;;;4.50;1.70;;;17.30;79.20;;;;;;20856373;28;20033;-78
2021/03/30 18:09:16;;;;;;;5.55;1.73;;;16.80;80.90;;;;;;20850575;28;20055;-77
2021/03/30 18:19:17;;;;;;;3.65;1.65;;;16.40;82.20;;;;;;20831788;28;20040;-78
2021/03/30 18:29:19;;;;;;;7.10;1.55;;;15.80;85.20;;;;;;20887361;28;20136;-77
2021/03/30 18:39:20;;;;;;;7.68;2.72;;;15.00;88.80;;;;;;20836234;28;20574;-79
2021/03/30 18:49:21;;;;;;;5.05;2.05;;;14.30;92.30;;;;;;20905764;28;20031;-78
2021/03/30 18:59:26;;;;;;;8.80;2.40;;;13.70;93.80;;;;;;20988622;28;20058;-79
2021/03/30 19:09:27;;;;;;;7.95;2.78;;;13.30;96.60;;;;;;20993608;28;20052;-79
2021/03/30 19:19:28;;;;;;;11.90;3.33;;;13.30;97.90;;;;;;20913968;28;20034;-80
2021/03/30 19:29:30;;;;;;;9.50;3.13;;;12.70;99.90;;;;;;20903408;28;20041;-79
2021/03/30 19:39:31;;;;;;;9.97;2.80;;;12.50;99.90;;;;;;20879690;28;20030;-78
2021/03/30 19:49:32;;;;;;;4.70;2.63;;;12.30;99.90;;;;;;20818607;28;20033;-78
2021/03/30 19:59:33;;;;;;;4.87;2.37;;;11.80;99.90;;;;;;20824082;28;20037;-80
2021/03/30 20:09:34;;;;;;;6.53;2.33;;;11.70;99.90;;;;;;20833475;28;20033;-79
2021/03/30 20:19:37;;;;;;;8.88;2.40;;;11.70;99.90;;;;;;20854793;28;20100;-80
2021/03/30 20:29:39;;;;;;;5.72;2.45;;;11.70;99.90;;;;;;20857252;28;20037;-78
2021/03/30 20:39:40;;;;;;;;;;;11.40;99.90;;;;;;20848662;28;20033;-78
2021/03/30 20:49:41;;;;;;;9.32;2.63;;;11.40;99.90;;;;;;20860940;28;20462;-78
2021/03/30 20:59:42;;;;;;;7.60;2.55;;;11.30;99.90;;;;;;20823667;28;20036;-78
2021/03/30 21:09:43;;;;;;;4.55;2.30;;;11.30;99.90;;;;;;20808425;28;20037;-78
2021/03/30 21:19:44;;;;;;;15.00;3.15;;;10.90;99.90;;;;;;20807587;28;20044;-79
2021/03/30 21:29:45;;;;;;;7.25;2.17;;;10.40;99.90;;;;;;20834798;28;20025;-78
2021/03/30 21:39:45;;;;;;;5.32;2.47;;;10.70;99.90;;;;;;20853678;28;20025;-78
2021/03/30 21:49:46;;;;;;;5.10;2.38;;;10.70;99.90;;;;;;20858470;28;20053;-79
2021/03/30 21:59:47;;;;;;;7.35;2.58;;;10.40;99.90;;;;;;20899074;28;20029;-78
2021/03/30 22:09:50;;;;;;;6.40;2.85;;;10.30;99.90;;;;;;20876347;28;20112;-80
2021/03/30 22:19:54;;;;;;;4.50;2.28;;;10.30;99.90;;;;;;20871840;28;20063;-80
2021/03/30 22:29:54;;;;;;;6.20;2.42;;;10.40;99.90;;;;;;20903833;28;20124;-79
2021/03/30 22:39:55;;;;;;;4.80;2.63;;;10.10;99.90;;;;;;20915516;28;20449;-80
2021/03/30 22:49:56;;;;;;;6.28;2.28;;;10.30;99.90;;;;;;20940118;28;20033;-79
2021/03/30 22:59:57;;;;;;;8.15;2.47;;;10.20;99.90;;;;;;20938006;28;20040;-79
2021/03/30 23:09:58;;;;;;;5.93;2.92;;;10.10;99.90;;;;;;20953328;28;20035;-79
2021/03/30 23:19:59;;;;;;;9.80;2.17;;;9.70;99.90;;;;;;20977224;23;20032;-79
2021/03/30 23:30:01;;;;;;;7.93;1.95;;;9.30;99.90;;;;;;21015345;28;20512;-78
2021/03/30 23:40:03;;;;;;;4.83;2.40;;;9.10;99.90;;;;;;21012331;28;20063;-77
2021/03/30 23:50:05;;;;;;;;;;;8.70;99.90;;;;;;21009923;28;20028;-78
